Terminal Aerodrome Forecast
Issued by NWS

Home | Current Version | Previous Version | Text Only | Print | Product List | Glossary On
Versions: 1 2 3 4 5 6 7 8 9 10 11 12 13 14 15 16 17 18 19
000
FTUS42 KTAE 162300
TAFVLD
TAF
KVLD 162338Z 1700/1724 08008KT P6SM SCT030
     FM170600 04007KT P6SM BKN015
     FM171700 08010KT P6SM BKN030=

USA.gov is the U.S. government's official web portal to all federal, state and local government web resources and services.